sensor_id;sensor_type;location;lat;lon;timestamp;pressure;altitude;pressure_sealevel;temperature;humidity
41830;BME280;38614;43.472;23.936;2022-10-16T00:02:40;101005.41;;;6.85;nan
41830;BME280;38614;43.472;23.936;2022-10-16T00:05:29;101025.66;;;6.89;nan
41830;BME280;38614;43.472;23.936;2022-10-16T00:08:16;101030.03;;;6.90;nan
41830;BME280;38614;43.472;23.936;2022-10-16T00:14:13;101019.63;;;6.87;nan
41830;BME280;38614;43.472;23.936;2022-10-16T00:17:01;101032.00;;;6.76;nan
41830;BME280;38614;43.472;23.936;2022-10-16T00:19:49;101034.19;;;6.88;nan
41830;BME280;38614;43.472;23.936;2022-10-16T00:22:37;101050.88;;;6.91;nan
41830;BME280;38614;43.472;23.936;2022-10-16T00:25:24;101047.75;;;6.84;nan
41830;BME280;38614;43.472;23.936;2022-10-16T00:28:12;101042.19;;;6.98;nan
41830;BME280;38614;43.472;23.936;2022-10-16T00:31:04;101033.53;;;6.82;nan
41830;BME280;38614;43.472;23.936;2022-10-16T00:33:52;101050.81;;;6.82;nan
41830;BME280;38614;43.472;23.936;2022-10-16T00:36:40;101037.19;;;6.77;nan
41830;BME280;38614;43.472;23.936;2022-10-16T00:39:28;101048.75;;;6.66;nan
41830;BME280;38614;43.472;23.936;2022-10-16T00:42:17;101032.31;;;6.74;nan
41830;BME280;38614;43.472;23.936;2022-10-16T00:45:06;101019.09;;;6.76;nan
41830;BME280;38614;43.472;23.936;2022-10-16T00:47:55;101041.19;;;6.71;nan
41830;BME280;38614;43.472;23.936;2022-10-16T00:50:44;101041.13;;;6.63;nan
41830;BME280;38614;43.472;23.936;2022-10-16T00:53:31;101025.56;;;6.58;nan
41830;BME280;38614;43.472;23.936;2022-10-16T00:56:19;101028.06;;;6.68;nan
41830;BME280;38614;43.472;23.936;2022-10-16T00:59:14;101026.03;;;6.51;nan
41830;BME280;38614;43.472;23.936;2022-10-16T01:02:05;101033.41;;;6.51;nan
41830;BME280;38614;43.472;23.936;2022-10-16T01:04:53;101016.13;;;6.50;nan
41830;BME280;38614;43.472;23.936;2022-10-16T01:08:13;101028.00;;;6.60;nan
41830;BME280;38614;43.472;23.936;2022-10-16T01:11:14;101022.00;;;6.57;nan
41830;BME280;38614;43.472;23.936;2022-10-16T01:14:20;101029.94;;;6.59;nan
41830;BME280;38614;43.472;23.936;2022-10-16T01:17:13;101036.38;;;6.54;nan
41830;BME280;38614;43.472;23.936;2022-10-16T01:20:31;101045.59;;;6.58;nan
41830;BME280;38614;43.472;23.936;2022-10-16T01:29:32;101036.53;;;6.36;nan
41830;BME280;38614;43.472;23.936;2022-10-16T01:35:34;101006.47;;;6.17;nan
41830;BME280;38614;43.472;23.936;2022-10-16T01:38:32;101029.03;;;6.27;nan
41830;BME280;38614;43.472;23.936;2022-10-16T01:41:30;101029.59;;;6.38;nan
41830;BME280;38614;43.472;23.936;2022-10-16T01:44:24;101036.31;;;6.32;nan
41830;BME280;38614;43.472;23.936;2022-10-16T01:47:15;101009.38;;;5.98;nan
41830;BME280;38614;43.472;23.936;2022-10-16T01:50:04;101010.44;;;6.11;nan
41830;BME280;38614;43.472;23.936;2022-10-16T01:52:55;101015.44;;;5.95;nan
41830;BME280;38614;43.472;23.936;2022-10-16T01:55:46;101040.00;;;6.14;nan
41830;BME280;38614;43.472;23.936;2022-10-16T01:58:40;101039.63;;;6.07;nan
41830;BME280;38614;43.472;23.936;2022-10-16T02:01:33;101056.88;;;6.21;nan
41830;BME280;38614;43.472;23.936;2022-10-16T02:07:14;101055.97;;;6.12;nan
41830;BME280;38614;43.472;23.936;2022-10-16T02:10:03;101059.44;;;6.04;nan
41830;BME280;38614;43.472;23.936;2022-10-16T02:12:59;101051.50;;;5.88;nan
41830;BME280;38614;43.472;23.936;2022-10-16T02:15:48;101058.53;;;5.81;nan
41830;BME280;38614;43.472;23.936;2022-10-16T02:18:41;101058.72;;;5.84;nan
41830;BME280;38614;43.472;23.936;2022-10-16T02:27:20;101038.50;;;5.53;nan
41830;BME280;38614;43.472;23.936;2022-10-16T02:33:11;101065.44;;;5.92;nan
41830;BME280;38614;43.472;23.936;2022-10-16T02:36:03;101073.75;;;5.87;nan
41830;BME280;38614;43.472;23.936;2022-10-16T02:38:51;101074.91;;;5.99;nan
41830;BME280;38614;43.472;23.936;2022-10-16T02:41:39;101039.03;;;5.68;nan
41830;BME280;38614;43.472;23.936;2022-10-16T02:44:27;101067.47;;;5.86;nan
41830;BME280;38614;43.472;23.936;2022-10-16T02:47:15;101065.31;;;5.83;nan
41830;BME280;38614;43.472;23.936;2022-10-16T02:50:03;101070.72;;;5.88;nan
41830;BME280;38614;43.472;23.936;2022-10-16T02:52:51;101079.16;;;5.92;nan
41830;BME280;38614;43.472;23.936;2022-10-16T02:55:39;101081.09;;;5.91;nan
41830;BME280;38614;43.472;23.936;2022-10-16T02:58:27;101085.56;;;5.87;nan
41830;BME280;38614;43.472;23.936;2022-10-16T03:01:15;101080.56;;;5.89;nan
41830;BME280;38614;43.472;23.936;2022-10-16T03:04:04;101081.66;;;5.75;nan
41830;BME280;38614;43.472;23.936;2022-10-16T03:06:52;101091.63;;;5.70;nan
41830;BME280;38614;43.472;23.936;2022-10-16T03:09:39;101080.53;;;5.62;nan
41830;BME280;38614;43.472;23.936;2022-10-16T03:12:28;101087.16;;;5.61;nan
41830;BME280;38614;43.472;23.936;2022-10-16T03:15:16;101083.38;;;5.57;nan
41830;BME280;38614;43.472;23.936;2022-10-16T03:18:04;101082.69;;;5.65;nan
41830;BME280;38614;43.472;23.936;2022-10-16T03:20:52;101068.47;;;5.49;nan
41830;BME280;38614;43.472;23.936;2022-10-16T03:23:40;101090.19;;;5.73;nan
41830;BME280;38614;43.472;23.936;2022-10-16T03:26:29;101100.97;;;5.83;nan
41830;BME280;38614;43.472;23.936;2022-10-16T03:29:17;101097.31;;;5.74;nan
41830;BME280;38614;43.472;23.936;2022-10-16T03:32:05;101098.53;;;5.82;nan
41830;BME280;38614;43.472;23.936;2022-10-16T03:34:53;101114.19;;;5.81;nan
41830;BME280;38614;43.472;23.936;2022-10-16T03:37:41;101109.66;;;5.90;nan
41830;BME280;38614;43.472;23.936;2022-10-16T03:40:29;101104.75;;;5.87;nan
41830;BME280;38614;43.472;23.936;2022-10-16T03:43:19;101091.31;;;5.72;nan
41830;BME280;38614;43.472;23.936;2022-10-16T03:46:07;101120.47;;;5.68;nan
41830;BME280;38614;43.472;23.936;2022-10-16T03:48:57;101101.69;;;5.75;nan
41830;BME280;38614;43.472;23.936;2022-10-16T03:51:45;101113.97;;;5.64;nan
41830;BME280;38614;43.472;23.936;2022-10-16T03:54:33;101116.81;;;5.59;nan
41830;BME280;38614;43.472;23.936;2022-10-16T03:57:21;101123.13;;;5.73;nan
41830;BME280;38614;43.472;23.936;2022-10-16T04:00:10;101119.00;;;5.57;nan
41830;BME280;38614;43.472;23.936;2022-10-16T04:02:58;101113.00;;;5.41;nan
41830;BME280;38614;43.472;23.936;2022-10-16T04:05:46;101143.53;;;5.34;nan
41830;BME280;38614;43.472;23.936;2022-10-16T04:08:33;101103.78;;;5.18;nan
41830;BME280;38614;43.472;23.936;2022-10-16T04:11:23;101116.94;;;5.35;nan
41830;BME280;38614;43.472;23.936;2022-10-16T04:14:11;101124.19;;;5.58;nan
41830;BME280;38614;43.472;23.936;2022-10-16T04:16:59;101125.38;;;5.38;nan
41830;BME280;38614;43.472;23.936;2022-10-16T04:19:47;101142.91;;;5.24;nan
41830;BME280;38614;43.472;23.936;2022-10-16T04:22:34;101111.31;;;5.12;nan
41830;BME280;38614;43.472;23.936;2022-10-16T04:25:25;101139.34;;;5.23;nan
41830;BME280;38614;43.472;23.936;2022-10-16T04:28:14;101122.78;;;5.14;nan
41830;BME280;38614;43.472;23.936;2022-10-16T04:31:05;101135.72;;;5.09;nan
41830;BME280;38614;43.472;23.936;2022-10-16T04:33:53;101139.22;;;4.96;nan
41830;BME280;38614;43.472;23.936;2022-10-16T04:36:41;101142.78;;;4.96;nan
41830;BME280;38614;43.472;23.936;2022-10-16T04:39:29;101136.84;;;4.89;nan
41830;BME280;38614;43.472;23.936;2022-10-16T04:42:17;101135.97;;;4.94;nan
41830;BME280;38614;43.472;23.936;2022-10-16T04:45:08;101155.72;;;5.09;nan
41830;BME280;38614;43.472;23.936;2022-10-16T04:48:01;101159.72;;;5.17;nan
41830;BME280;38614;43.472;23.936;2022-10-16T04:50:49;101153.38;;;5.35;nan
41830;BME280;38614;43.472;23.936;2022-10-16T04:53:40;101144.59;;;5.20;nan
41830;BME280;38614;43.472;23.936;2022-10-16T04:56:28;101161.59;;;5.35;nan
41830;BME280;38614;43.472;23.936;2022-10-16T04:59:20;101128.38;;;5.23;nan
41830;BME280;38614;43.472;23.936;2022-10-16T05:02:08;101157.63;;;5.28;nan
41830;BME280;38614;43.472;23.936;2022-10-16T05:04:56;101162.00;;;5.10;nan
41830;BME280;38614;43.472;23.936;2022-10-16T05:07:44;101166.59;;;5.14;nan
41830;BME280;38614;43.472;23.936;2022-10-16T05:10:31;101174.72;;;5.20;nan
41830;BME280;38614;43.472;23.936;2022-10-16T05:13:19;101101.47;;;4.93;nan
41830;BME280;38614;43.472;23.936;2022-10-16T05:16:10;101177.44;;;5.38;nan
41830;BME280;38614;43.472;23.936;2022-10-16T05:19:00;101188.41;;;5.38;nan
41830;BME280;38614;43.472;23.936;2022-10-16T05:22:13;101191.16;;;5.38;nan
41830;BME280;38614;43.472;23.936;2022-10-16T05:25:01;101196.63;;;5.38;nan
41830;BME280;38614;43.472;23.936;2022-10-16T05:27:49;101189.31;;;5.34;nan
41830;BME280;38614;43.472;23.936;2022-10-16T05:30:37;101189.69;;;5.27;nan
41830;BME280;38614;43.472;23.936;2022-10-16T05:33:26;101203.22;;;5.37;nan
41830;BME280;38614;43.472;23.936;2022-10-16T05:36:14;101199.66;;;5.56;nan
41830;BME280;38614;43.472;23.936;2022-10-16T05:39:02;101197.13;;;5.59;nan
41830;BME280;38614;43.472;23.936;2022-10-16T05:41:50;101204.00;;;5.89;nan
41830;BME280;38614;43.472;23.936;2022-10-16T05:44:40;101205.72;;;6.18;nan
41830;BME280;38614;43.472;23.936;2022-10-16T05:47:29;101202.56;;;6.38;nan
41830;BME280;38614;43.472;23.936;2022-10-16T05:50:17;101211.41;;;6.49;nan
41830;BME280;38614;43.472;23.936;2022-10-16T05:53:04;101214.97;;;6.49;nan
41830;BME280;38614;43.472;23.936;2022-10-16T05:55:53;101199.91;;;6.61;nan
41830;BME280;38614;43.472;23.936;2022-10-16T05:58:41;101212.41;;;6.80;nan
41830;BME280;38614;43.472;23.936;2022-10-16T06:01:29;101210.66;;;6.98;nan
41830;BME280;38614;43.472;23.936;2022-10-16T06:04:18;101217.41;;;7.14;nan
41830;BME280;38614;43.472;23.936;2022-10-16T06:07:06;101219.03;;;7.15;nan
41830;BME280;38614;43.472;23.936;2022-10-16T06:09:53;101164.03;;;6.93;nan
41830;BME280;38614;43.472;23.936;2022-10-16T06:12:41;101225.19;;;7.57;nan
41830;BME280;38614;43.472;23.936;2022-10-16T06:15:29;101231.69;;;7.84;nan
41830;BME280;38614;43.472;23.936;2022-10-16T06:18:17;101231.47;;;8.03;nan
41830;BME280;38614;43.472;23.936;2022-10-16T06:21:10;101235.25;;;8.15;nan
41830;BME280;38614;43.472;23.936;2022-10-16T06:23:58;101227.09;;;8.33;nan
41830;BME280;38614;43.472;23.936;2022-10-16T06:26:49;101240.03;;;8.63;nan
41830;BME280;38614;43.472;23.936;2022-10-16T06:29:37;101236.53;;;8.89;nan
41830;BME280;38614;43.472;23.936;2022-10-16T06:32:25;101238.03;;;9.21;nan
41830;BME280;38614;43.472;23.936;2022-10-16T06:35:12;101242.91;;;9.58;nan
41830;BME280;38614;43.472;23.936;2022-10-16T06:38:00;101241.44;;;9.78;nan
41830;BME280;38614;43.472;23.936;2022-10-16T06:40:48;101249.38;;;9.88;nan
41830;BME280;38614;43.472;23.936;2022-10-16T06:43:36;101255.19;;;10.04;nan
41830;BME280;38614;43.472;23.936;2022-10-16T06:46:25;101232.63;;;10.02;nan
41830;BME280;38614;43.472;23.936;2022-10-16T06:49:13;101253.38;;;10.25;nan
41830;BME280;38614;43.472;23.936;2022-10-16T06:52:08;101233.50;;;10.32;nan
41830;BME280;38614;43.472;23.936;2022-10-16T06:54:56;101264.88;;;10.74;nan
41830;BME280;38614;43.472;23.936;2022-10-16T06:57:43;101277.56;;;11.26;nan
41830;BME280;38614;43.472;23.936;2022-10-16T07:00:31;101270.78;;;11.44;nan
41830;BME280;38614;43.472;23.936;2022-10-16T07:03:19;101287.75;;;11.63;nan
41830;BME280;38614;43.472;23.936;2022-10-16T07:06:08;101280.47;;;11.71;nan
41830;BME280;38614;43.472;23.936;2022-10-16T07:08:56;101288.16;;;12.07;nan
41830;BME280;38614;43.472;23.936;2022-10-16T07:11:44;101278.88;;;12.36;nan
41830;BME280;38614;43.472;23.936;2022-10-16T07:14:32;101275.22;;;12.81;nan
41830;BME280;38614;43.472;23.936;2022-10-16T07:17:21;101290.38;;;12.71;nan
41830;BME280;38614;43.472;23.936;2022-10-16T07:20:09;101275.81;;;12.87;nan
41830;BME280;38614;43.472;23.936;2022-10-16T07:22:57;101276.00;;;13.30;nan
41830;BME280;38614;43.472;23.936;2022-10-16T07:25:44;101279.00;;;13.50;nan
41830;BME280;38614;43.472;23.936;2022-10-16T07:28:33;101277.94;;;13.82;nan
41830;BME280;38614;43.472;23.936;2022-10-16T07:31:21;101271.72;;;14.01;nan
41830;BME280;38614;43.472;23.936;2022-10-16T07:34:11;101223.16;;;14.11;nan
41830;BME280;38614;43.472;23.936;2022-10-16T07:36:59;101268.41;;;14.87;nan
41830;BME280;38614;43.472;23.936;2022-10-16T07:39:47;101261.09;;;14.98;nan
41830;BME280;38614;43.472;23.936;2022-10-16T07:42:35;101272.69;;;15.35;nan
41830;BME280;38614;43.472;23.936;2022-10-16T07:45:23;101270.22;;;15.49;nan
41830;BME280;38614;43.472;23.936;2022-10-16T07:48:10;101272.22;;;15.14;nan
41830;BME280;38614;43.472;23.936;2022-10-16T07:51:06;101276.38;;;15.58;nan
41830;BME280;38614;43.472;23.936;2022-10-16T07:53:54;101265.72;;;15.60;nan
41830;BME280;38614;43.472;23.936;2022-10-16T07:56:42;101278.88;;;16.44;nan
41830;BME280;38614;43.472;23.936;2022-10-16T07:59:30;101275.00;;;16.72;nan
41830;BME280;38614;43.472;23.936;2022-10-16T08:02:20;101280.91;;;16.93;nan
41830;BME280;38614;43.472;23.936;2022-10-16T08:05:08;101269.53;;;16.79;nan
41830;BME280;38614;43.472;23.936;2022-10-16T08:07:57;101287.25;;;17.43;nan
41830;BME280;38614;43.472;23.936;2022-10-16T08:10:45;101287.94;;;17.63;nan
41830;BME280;38614;43.472;23.936;2022-10-16T08:13:33;101271.22;;;17.40;nan
41830;BME280;38614;43.472;23.936;2022-10-16T08:16:21;101290.22;;;17.27;nan
41830;BME280;38614;43.472;23.936;2022-10-16T08:19:09;101274.78;;;17.37;nan
41830;BME280;38614;43.472;23.936;2022-10-16T08:21:57;101273.44;;;17.84;nan
41830;BME280;38614;43.472;23.936;2022-10-16T08:24:44;101285.41;;;18.18;nan
41830;BME280;38614;43.472;23.936;2022-10-16T08:27:33;101259.25;;;18.00;nan
41830;BME280;38614;43.472;23.936;2022-10-16T08:30:22;101275.31;;;18.47;nan
41830;BME280;38614;43.472;23.936;2022-10-16T08:33:10;101295.56;;;18.74;nan
41830;BME280;38614;43.472;23.936;2022-10-16T08:35:58;101292.66;;;18.63;nan
41830;BME280;38614;43.472;23.936;2022-10-16T08:38:49;101292.44;;;18.42;nan
41830;BME280;38614;43.472;23.936;2022-10-16T08:42:02;101283.84;;;19.09;nan
41830;BME280;38614;43.472;23.936;2022-10-16T08:50:45;101286.75;;;20.07;nan
41830;BME280;38614;43.472;23.936;2022-10-16T08:53:56;101275.53;;;20.17;nan
41830;BME280;38614;43.472;23.936;2022-10-16T08:56:44;101294.34;;;19.99;nan
41830;BME280;38614;43.472;23.936;2022-10-16T08:59:32;101292.69;;;19.91;nan
41830;BME280;38614;43.472;23.936;2022-10-16T09:08:27;101286.47;;;20.44;nan
41830;BME280;38614;43.472;23.936;2022-10-16T09:11:23;101306.53;;;20.53;nan
41830;BME280;38614;43.472;23.936;2022-10-16T09:20:58;101306.53;;;21.17;nan
41830;BME280;38614;43.472;23.936;2022-10-16T09:23:43;101303.72;;;21.10;nan
41830;BME280;38614;43.472;23.936;2022-10-16T09:26:31;101308.53;;;20.92;nan
41830;BME280;38614;43.472;23.936;2022-10-16T09:29:21;101307.75;;;20.84;nan
41830;BME280;38614;43.472;23.936;2022-10-16T09:32:19;101280.41;;;21.31;nan
41830;BME280;38614;43.472;23.936;2022-10-16T09:35:17;101296.38;;;21.70;nan
41830;BME280;38614;43.472;23.936;2022-10-16T09:38:07;101299.66;;;21.50;nan
41830;BME280;38614;43.472;23.936;2022-10-16T09:41:00;101289.59;;;21.60;nan
41830;BME280;38614;43.472;23.936;2022-10-16T09:43:53;101290.06;;;21.33;nan
41830;BME280;38614;43.472;23.936;2022-10-16T09:46:44;101279.19;;;21.50;nan
41830;BME280;38614;43.472;23.936;2022-10-16T09:49:32;101267.97;;;21.36;nan
41830;BME280;38614;43.472;23.936;2022-10-16T09:52:21;101262.28;;;21.60;nan
41830;BME280;38614;43.472;23.936;2022-10-16T09:55:17;101284.22;;;21.90;nan
41830;BME280;38614;43.472;23.936;2022-10-16T09:58:13;101258.59;;;21.67;nan
41830;BME280;38614;43.472;23.936;2022-10-16T10:01:06;101283.44;;;21.86;nan
41830;BME280;38614;43.472;23.936;2022-10-16T10:03:59;101275.84;;;21.80;nan
41830;BME280;38614;43.472;23.936;2022-10-16T10:06:49;101275.53;;;21.60;nan
41830;BME280;38614;43.472;23.936;2022-10-16T10:09:39;101278.66;;;21.76;nan
41830;BME280;38614;43.472;23.936;2022-10-16T10:12:28;101257.03;;;21.59;nan
41830;BME280;38614;43.472;23.936;2022-10-16T10:15:18;101269.34;;;21.94;nan
41830;BME280;38614;43.472;23.936;2022-10-16T10:18:18;101263.34;;;21.84;nan
41830;BME280;38614;43.472;23.936;2022-10-16T10:21:13;101258.66;;;21.60;nan
41830;BME280;38614;43.472;23.936;2022-10-16T10:24:02;101247.03;;;21.47;nan
41830;BME280;38614;43.472;23.936;2022-10-16T10:27:10;101257.13;;;22.22;nan
41830;BME280;38614;43.472;23.936;2022-10-16T10:30:46;101271.25;;;22.14;nan
41830;BME280;38614;43.472;23.936;2022-10-16T10:33:45;101265.00;;;21.75;nan
41830;BME280;38614;43.472;23.936;2022-10-16T10:36:55;101257.72;;;21.84;nan
41830;BME280;38614;43.472;23.936;2022-10-16T10:39:56;101252.31;;;22.26;nan
41830;BME280;38614;43.472;23.936;2022-10-16T10:42:54;101247.06;;;22.24;nan
41830;BME280;38614;43.472;23.936;2022-10-16T10:45:47;101247.28;;;21.85;nan
41830;BME280;38614;43.472;23.936;2022-10-16T10:52:02;101240.94;;;21.63;nan
41830;BME280;38614;43.472;23.936;2022-10-16T11:00:54;101224.66;;;22.03;nan
41830;BME280;38614;43.472;23.936;2022-10-16T11:03:58;101237.66;;;21.82;nan
41830;BME280;38614;43.472;23.936;2022-10-16T11:06:59;101236.75;;;21.96;nan
41830;BME280;38614;43.472;23.936;2022-10-16T11:09:55;101230.28;;;22.03;nan
41830;BME280;38614;43.472;23.936;2022-10-16T11:12:49;101233.81;;;22.21;nan
41830;BME280;38614;43.472;23.936;2022-10-16T11:15:39;101234.13;;;21.57;nan
41830;BME280;38614;43.472;23.936;2022-10-16T11:22:02;101217.88;;;21.97;nan
41830;BME280;38614;43.472;23.936;2022-10-16T11:24:59;101217.88;;;21.97;nan
41830;BME280;38614;43.472;23.936;2022-10-16T11:28:11;101231.97;;;21.93;nan
41830;BME280;38614;43.472;23.936;2022-10-16T11:31:13;101219.19;;;21.74;nan
41830;BME280;38614;43.472;23.936;2022-10-16T11:34:12;101217.94;;;21.82;nan
41830;BME280;38614;43.472;23.936;2022-10-16T11:37:30;101230.41;;;21.81;nan
41830;BME280;38614;43.472;23.936;2022-10-16T11:40:32;101217.31;;;21.50;nan
41830;BME280;38614;43.472;23.936;2022-10-16T11:43:26;101237.00;;;21.39;nan
41830;BME280;38614;43.472;23.936;2022-10-16T11:46:20;101206.03;;;21.53;nan
41830;BME280;38614;43.472;23.936;2022-10-16T11:49:15;101225.28;;;21.62;nan
41830;BME280;38614;43.472;23.936;2022-10-16T11:52:22;101229.25;;;21.72;nan
41830;BME280;38614;43.472;23.936;2022-10-16T11:55:37;101216.50;;;21.46;nan
41830;BME280;38614;43.472;23.936;2022-10-16T11:58:59;101218.56;;;21.34;nan
41830;BME280;38614;43.472;23.936;2022-10-16T12:01:54;101214.53;;;21.43;nan
41830;BME280;38614;43.472;23.936;2022-10-16T12:04:50;101206.88;;;21.47;nan
41830;BME280;38614;43.472;23.936;2022-10-16T12:08:11;101218.06;;;21.57;nan
41830;BME280;38614;43.472;23.936;2022-10-16T12:14:22;101218.59;;;21.17;nan
41830;BME280;38614;43.472;23.936;2022-10-16T12:17:38;101215.75;;;21.34;nan
41830;BME280;38614;43.472;23.936;2022-10-16T12:20:33;101201.75;;;21.13;nan
41830;BME280;38614;43.472;23.936;2022-10-16T12:23:23;101213.75;;;21.28;nan
41830;BME280;38614;43.472;23.936;2022-10-16T12:26:11;101219.84;;;21.05;nan
41830;BME280;38614;43.472;23.936;2022-10-16T12:29:36;101219.03;;;20.97;nan
41830;BME280;38614;43.472;23.936;2022-10-16T12:35:35;101213.78;;;21.10;nan
41830;BME280;38614;43.472;23.936;2022-10-16T12:38:45;101219.00;;;21.12;nan
41830;BME280;38614;43.472;23.936;2022-10-16T12:41:35;101210.63;;;20.87;nan
41830;BME280;38614;43.472;23.936;2022-10-16T12:47:35;101207.34;;;21.17;nan
41830;BME280;38614;43.472;23.936;2022-10-16T12:50:31;101208.59;;;20.98;nan
41830;BME280;38614;43.472;23.936;2022-10-16T12:53:22;101199.75;;;21.03;nan
41830;BME280;38614;43.472;23.936;2022-10-16T12:56:21;101208.59;;;20.91;nan
41830;BME280;38614;43.472;23.936;2022-10-16T13:09:02;101219.88;;;20.52;nan
41830;BME280;38614;43.472;23.936;2022-10-16T13:15:22;101227.91;;;20.53;nan
41830;BME280;38614;43.472;23.936;2022-10-16T13:25:22;101220.25;;;20.32;nan
41830;BME280;38614;43.472;23.936;2022-10-16T13:28:01;101218.63;;;20.13;nan
41830;BME280;38614;43.472;23.936;2022-10-16T13:30:53;101215.81;;;20.06;nan
41830;BME280;38614;43.472;23.936;2022-10-16T13:36:44;101226.94;;;19.74;nan
41830;BME280;38614;43.472;23.936;2022-10-16T13:39:32;101216.50;;;19.68;nan
41830;BME280;38614;43.472;23.936;2022-10-16T13:42:28;101229.31;;;19.72;nan
41830;BME280;38614;43.472;23.936;2022-10-16T13:45:19;101217.69;;;19.63;nan
41830;BME280;38614;43.472;23.936;2022-10-16T13:48:09;101229.59;;;19.42;nan
41830;BME280;38614;43.472;23.936;2022-10-16T13:51:21;101225.56;;;19.40;nan
41830;BME280;38614;43.472;23.936;2022-10-16T13:54:10;101222.69;;;19.25;nan
41830;BME280;38614;43.472;23.936;2022-10-16T13:57:05;101201.34;;;19.03;nan
41830;BME280;38614;43.472;23.936;2022-10-16T14:00:22;101228.59;;;19.06;nan
41830;BME280;38614;43.472;23.936;2022-10-16T14:03:15;101220.84;;;18.85;nan
41830;BME280;38614;43.472;23.936;2022-10-16T14:06:06;101236.84;;;18.81;nan
41830;BME280;38614;43.472;23.936;2022-10-16T14:09:29;101238.78;;;18.73;nan
41830;BME280;38614;43.472;23.936;2022-10-16T14:12:17;101208.53;;;18.49;nan
41830;BME280;38614;43.472;23.936;2022-10-16T14:15:16;101228.53;;;18.47;nan
41830;BME280;38614;43.472;23.936;2022-10-16T14:18:05;101232.53;;;18.50;nan
41830;BME280;38614;43.472;23.936;2022-10-16T14:20:52;101237.66;;;18.41;nan
41830;BME280;38614;43.472;23.936;2022-10-16T14:23:43;101235.16;;;18.29;nan
41830;BME280;38614;43.472;23.936;2022-10-16T14:26:41;101245.06;;;18.19;nan
41830;BME280;38614;43.472;23.936;2022-10-16T14:29:33;101219.59;;;17.90;nan
41830;BME280;38614;43.472;23.936;2022-10-16T14:32:26;101242.91;;;18.05;nan
41830;BME280;38614;43.472;23.936;2022-10-16T14:35:33;101252.44;;;17.97;nan
41830;BME280;38614;43.472;23.936;2022-10-16T14:38:21;101247.53;;;17.87;nan
41830;BME280;38614;43.472;23.936;2022-10-16T14:41:09;101246.63;;;17.79;nan
41830;BME280;38614;43.472;23.936;2022-10-16T14:44:04;101251.41;;;17.79;nan
41830;BME280;38614;43.472;23.936;2022-10-16T14:46:51;101245.63;;;17.64;nan
41830;BME280;38614;43.472;23.936;2022-10-16T14:49:41;101259.84;;;17.52;nan
41830;BME280;38614;43.472;23.936;2022-10-16T14:52:29;101254.47;;;17.40;nan
41830;BME280;38614;43.472;23.936;2022-10-16T14:55:17;101259.13;;;17.29;nan
41830;BME280;38614;43.472;23.936;2022-10-16T14:58:08;101260.31;;;17.28;nan
41830;BME280;38614;43.472;23.936;2022-10-16T15:00:58;101253.13;;;17.30;nan
41830;BME280;38614;43.472;23.936;2022-10-16T15:03:48;101248.97;;;17.17;nan
41830;BME280;38614;43.472;23.936;2022-10-16T15:06:36;101255.50;;;16.98;nan
41830;BME280;38614;43.472;23.936;2022-10-16T15:09:24;101254.63;;;16.94;nan
41830;BME280;38614;43.472;23.936;2022-10-16T15:12:14;101266.13;;;16.89;nan
41830;BME280;38614;43.472;23.936;2022-10-16T15:18:10;101260.25;;;16.71;nan
41830;BME280;38614;43.472;23.936;2022-10-16T15:20:58;101260.09;;;16.64;nan
41830;BME280;38614;43.472;23.936;2022-10-16T15:23:46;101256.56;;;16.44;nan
41830;BME280;38614;43.472;23.936;2022-10-16T15:26:35;101262.00;;;16.37;nan
41830;BME280;38614;43.472;23.936;2022-10-16T15:29:22;101256.81;;;16.36;nan
41830;BME280;38614;43.472;23.936;2022-10-16T15:32:10;101271.75;;;16.24;nan
41830;BME280;38614;43.472;23.936;2022-10-16T15:34:58;101276.09;;;16.21;nan
41830;BME280;38614;43.472;23.936;2022-10-16T15:37:47;101275.91;;;16.11;nan
41830;BME280;38614;43.472;23.936;2022-10-16T15:40:35;101275.47;;;15.89;nan
41830;BME280;38614;43.472;23.936;2022-10-16T15:43:26;101280.00;;;15.78;nan
41830;BME280;38614;43.472;23.936;2022-10-16T15:46:14;101290.19;;;15.71;nan
41830;BME280;38614;43.472;23.936;2022-10-16T15:49:03;101293.47;;;15.57;nan
41830;BME280;38614;43.472;23.936;2022-10-16T15:51:50;101288.84;;;15.45;nan
41830;BME280;38614;43.472;23.936;2022-10-16T15:54:40;101267.22;;;15.38;nan
41830;BME280;38614;43.472;23.936;2022-10-16T15:57:28;101292.78;;;15.44;nan
41830;BME280;38614;43.472;23.936;2022-10-16T16:00:18;101300.41;;;15.28;nan
41830;BME280;38614;43.472;23.936;2022-10-16T16:03:09;101308.28;;;15.26;nan
41830;BME280;38614;43.472;23.936;2022-10-16T16:05:57;101309.66;;;15.16;nan
41830;BME280;38614;43.472;23.936;2022-10-16T16:08:45;101311.13;;;15.10;nan
41830;BME280;38614;43.472;23.936;2022-10-16T16:11:33;101326.03;;;15.02;nan
41830;BME280;38614;43.472;23.936;2022-10-16T16:14:24;101322.53;;;14.89;nan
41830;BME280;38614;43.472;23.936;2022-10-16T16:17:17;101327.28;;;14.89;nan
41830;BME280;38614;43.472;23.936;2022-10-16T16:20:11;101336.53;;;14.77;nan
41830;BME280;38614;43.472;23.936;2022-10-16T16:23:00;101341.09;;;14.69;nan
41830;BME280;38614;43.472;23.936;2022-10-16T16:26:04;101357.34;;;14.67;nan
41830;BME280;38614;43.472;23.936;2022-10-16T16:28:55;101343.31;;;14.48;nan
41830;BME280;38614;43.472;23.936;2022-10-16T16:31:44;101348.31;;;14.42;nan
41830;BME280;38614;43.472;23.936;2022-10-16T16:34:34;101354.28;;;14.29;nan
41830;BME280;38614;43.472;23.936;2022-10-16T16:37:22;101331.34;;;14.04;nan
41830;BME280;38614;43.472;23.936;2022-10-16T16:40:10;101326.56;;;13.88;nan
41830;BME280;38614;43.472;23.936;2022-10-16T16:43:04;101373.97;;;14.08;nan
41830;BME280;38614;43.472;23.936;2022-10-16T16:45:53;101379.16;;;14.09;nan
41830;BME280;38614;43.472;23.936;2022-10-16T16:48:41;101380.38;;;13.96;nan